Canto do Buriti, Brazil
Current Conditions -  °F | °C
As of 4:00 PM on Friday 21 Nov 2014 (Local Time) from SBPL Reporting Station
Scattered Clouds Scattered Clouds  
Wind Chill: 91°   Ceiling: Unl
Heat Index: 97°   Visibility: 6mi
Dew Point: 70°   Wind: 10mph
Humidity: 49%   Direction: 150°SSE
Pressure: 29.85"   Gusts: NA
Location:  8.1°S, 42.97°W
Report Text: SBPL 211900Z 15009KT 9999 SCT040 33/21 Q1011
Loading
Personal Weather Stations






























Interactive Weather Map New forecast layout! Learn more

10-Day Weather Forecast

Advertisements
Track Severe Weather on mobile